Aviation Digital Data Service (ADDS)

Output produced by METARs form (1103 UTC 13 December 2017)
found at http://www.aviationweather.gov/adds/metars/
 
LYBE 131100Z 34007KT 4500 RA BR SCT006 BKN014 04/03 Q1019 NOSIG
TAF LYBE 130500Z 1306/1406 31010KT 9999 BKN013 BKN030 TX05/1306Z TN02/1405Z 
     TEMPO 1306/1309 BKN005 BKN027 
     TEMPO 1311/1320 4000 -RA BR BKN008 BKN027 
     BECMG 1322/1324 20006KT 3000 BR SCT015 BKN027
       
LYNI 131100Z 12003KT 070V170 9999 FEW040 11/05 Q1016 BECMG 32015KT
TAF LYNI 130500Z 1306/1406 16006KT 9999 SCT040 TX13/1312Z TN03/1405Z 
     BECMG 1316/1318 32012KT 
     TEMPO 1318/1403 5000 RA BKN015 BKN030
       
LYVR 131100Z 31007KT 3000 -DZ OVC005 05/05 Q1018 NOSIG
TAF LYVR 130500Z 1306/1406 30008KT 6000 BKN006 BKN030 TX07/1306Z TN02/1405Z 
     TEMPO 1312/1320 4000 -RA BR BKN003 BKN027 
     BECMG 1322/1324 1500 BR BKN003 BKN025
       
LYKV 131100Z VRB04KT 9999 -RA SCT007 BKN018 OVC070 09/07 Q1017 NOSIG
TAF LYKV 130500Z 1306/1406 14005KT 9999 SCT040 TX12/1312Z TN04/1406Z 
     BECMG 1312/1314 32010KT 
     TEMPO 1312/1324 5000 RA BKN015 BKN027
       
LYBT 131100Z 29007KT 6000 -RA SCT007 BKN017 04/03 Q1019 NOSIG
TAF LYBT 130500Z 1306/1406 31010KT 9999 BKN013 BKN030 TX05/1306Z TN01/1405Z 
     TEMPO 1306/1308 BKN008 BKN027 
     TEMPO 1311/1320 4000 -RA BR BKN010 BKN027 
     BECMG 1320/1322 22005KT 2000 BR SCT015 BKN027
       
LYUZ 131100Z 32005KT 200V360 0100 -RA FG VV001 03/03 Q1016
TAF LYUZ 130500Z 1306/1406 22010KT 9999 BKN020 TX09/1306Z TN01/1405Z 
     BECMG 1307/1309 32010KT 2000 -RA BR BKN004 OVC010 
     BECMG 1311/1313 0200 RA FG VV002 
     BECMG 1402/1404 3000 BR BKN003 BKN015